createdAt,value
2022-09-22T00:01:55.311Z,1.05
2022-09-22T00:04:44.648Z,0.57
2022-09-22T00:07:33.570Z,0.65
2022-09-22T00:10:23.403Z,0.90
2022-09-22T00:13:12.249Z,0.95
2022-09-22T00:16:05.093Z,0.70
2022-09-22T00:18:54.646Z,0.75
2022-09-22T00:21:44.292Z,0.80
2022-09-22T00:24:35.180Z,0.80
2022-09-22T00:27:25.954Z,0.75
2022-09-22T00:30:16.550Z,0.55
2022-09-22T00:33:06.776Z,0.70
2022-09-22T00:35:59.837Z,0.65
2022-09-22T00:38:50.795Z,0.90
2022-09-22T00:41:42.107Z,0.75
2022-09-22T00:44:40.236Z,0.70
2022-09-22T00:47:36.548Z,0.60
2022-09-22T00:50:28.788Z,0.60
2022-09-22T00:53:19.519Z,0.55
2022-09-22T00:56:12.610Z,0.50
2022-09-22T00:59:06.972Z,0.65
2022-09-22T01:01:57.509Z,0.60
2022-09-22T01:04:47.157Z,0.68
2022-09-22T01:07:38.523Z,0.75
2022-09-22T01:10:28.455Z,0.60
2022-09-22T01:13:27.663Z,0.80
2022-09-22T01:16:32.139Z,0.70
2022-09-22T01:19:57.315Z,0.70
2022-09-22T01:23:18.650Z,0.57
2022-09-22T01:26:38.211Z,0.77
2022-09-22T01:30:10.809Z,0.68
2022-09-22T01:33:22.610Z,0.60
2022-09-22T01:36:22.774Z,0.65
2022-09-22T01:39:18.458Z,0.70
2022-09-22T01:42:10.931Z,0.68
2022-09-22T01:45:04.720Z,0.40
2022-09-22T01:47:59.142Z,0.60
2022-09-22T01:50:55.053Z,0.45
2022-09-22T01:53:48.121Z,0.63
2022-09-22T01:56:40.198Z,0.30
2022-09-22T01:59:32.915Z,0.50
2022-09-22T02:02:27.033Z,0.70
2022-09-22T02:05:23.509Z,0.45
2022-09-22T02:08:19.560Z,0.63
2022-09-22T02:11:14.534Z,0.50
2022-09-22T02:14:04.808Z,0.68
2022-09-22T02:16:54.757Z,0.40
2022-09-22T02:19:44.351Z,0.35
2022-09-22T02:22:35.003Z,0.38
2022-09-22T02:25:25.017Z,0.38
2022-09-22T02:28:17.353Z,0.50
2022-09-22T02:31:20.007Z,0.52
2022-09-22T02:34:10.551Z,0.88
2022-09-22T02:37:05.190Z,0.60
2022-09-22T02:40:05.967Z,0.60
2022-09-22T02:43:02.483Z,0.47
2022-09-22T02:45:57.480Z,0.70
2022-09-22T02:48:49.213Z,0.60
2022-09-22T02:51:38.735Z,0.50
2022-09-22T02:54:28.142Z,0.80
2022-09-22T02:57:18.491Z,0.75
2022-09-22T03:00:08.537Z,0.73
2022-09-22T03:02:57.748Z,1.00
2022-09-22T03:05:46.858Z,0.80
2022-09-22T03:08:36.552Z,0.80
2022-09-22T03:11:27.245Z,1.52
2022-09-22T03:14:17.450Z,1.15
2022-09-22T03:17:06.809Z,1.02
2022-09-22T03:19:56.035Z,1.10
2022-09-22T03:22:45.213Z,1.05
2022-09-22T03:25:34.211Z,1.10
2022-09-22T03:28:23.279Z,1.13
2022-09-22T03:31:14.274Z,1.50
2022-09-22T03:34:03.595Z,1.45
2022-09-22T03:36:52.295Z,1.30
2022-09-22T03:39:41.617Z,1.00
2022-09-22T03:42:30.879Z,1.20
2022-09-22T03:45:20.730Z,0.73
2022-09-22T03:48:11.605Z,0.75
2022-09-22T03:51:00.665Z,0.90
2022-09-22T03:53:49.535Z,1.10
2022-09-22T03:56:38.426Z,1.17
2022-09-22T03:59:27.958Z,1.30
2022-09-22T04:02:17.008Z,1.30
2022-09-22T04:05:08.716Z,1.00
2022-09-22T04:07:58.264Z,1.10
2022-09-22T04:10:47.676Z,1.27
2022-09-22T04:13:37.303Z,1.05
2022-09-22T04:16:25.888Z,1.30
2022-09-22T04:19:15.643Z,0.90
2022-09-22T04:22:06.666Z,1.57
2022-09-22T04:24:55.602Z,1.00
2022-09-22T04:27:44.056Z,1.08
2022-09-22T04:30:33.903Z,1.38
2022-09-22T04:33:23.459Z,0.93
2022-09-22T04:36:13.075Z,1.20
2022-09-22T04:39:04.222Z,1.38
2022-09-22T04:41:53.520Z,1.20
2022-09-22T04:44:43.259Z,0.77
2022-09-22T04:47:32.190Z,0.88
2022-09-22T04:50:23.526Z,0.88
2022-09-22T04:53:12.767Z,0.90
2022-09-22T04:56:03.562Z,1.00
2022-09-22T04:58:52.988Z,0.82
2022-09-22T05:01:42.040Z,0.80
2022-09-22T05:04:31.865Z,1.20
2022-09-22T05:07:20.793Z,0.90
2022-09-22T05:10:11.210Z,0.75
2022-09-22T05:13:01.825Z,0.75
2022-09-22T05:15:51.009Z,1.02
2022-09-22T05:18:40.707Z,0.90
2022-09-22T05:21:30.094Z,1.13
2022-09-22T05:24:19.192Z,1.15
2022-09-22T05:27:08.083Z,0.70
2022-09-22T05:29:58.703Z,0.93
2022-09-22T05:32:49.566Z,1.00
2022-09-22T05:35:38.303Z,1.25
2022-09-22T05:38:27.887Z,1.23
2022-09-22T07:17:22.542Z,0.60
2022-09-22T07:20:11.280Z,1.38
2022-09-22T07:23:01.106Z,1.25
2022-09-22T07:25:56.624Z,0.90
2022-09-22T07:28:47.194Z,0.70
2022-09-22T07:31:36.921Z,0.65
2022-09-22T07:34:27.728Z,0.70
2022-09-22T07:37:17.043Z,0.88
2022-09-22T07:40:07.710Z,0.85
2022-09-22T07:42:57.345Z,0.50
2022-09-22T07:45:57.324Z,0.50
2022-09-22T07:48:48.258Z,0.40
2022-09-22T07:51:38.884Z,0.45
2022-09-22T07:54:29.363Z,0.50
2022-09-22T07:57:18.420Z,0.60
2022-09-22T08:00:08.838Z,0.70
2022-09-22T08:02:58.144Z,0.57
2022-09-22T08:05:49.963Z,0.50
2022-09-22T08:08:42.751Z,0.40
2022-09-22T08:11:32.336Z,0.40
2022-09-22T08:14:24.395Z,0.50
2022-09-22T08:17:13.133Z,0.60
2022-09-22T08:20:02.705Z,0.88
2022-09-22T08:22:53.613Z,0.80
2022-09-22T08:25:44.616Z,1.00
2022-09-22T08:28:33.538Z,0.70
2022-09-22T08:31:23.416Z,0.60
2022-09-22T08:34:15.170Z,0.68
2022-09-22T08:37:04.543Z,0.93
2022-09-22T08:39:53.805Z,0.60
2022-09-22T08:42:45.710Z,0.75
2022-09-22T08:45:38.388Z,0.80
2022-09-22T08:48:46.289Z,0.90
2022-09-22T08:51:53.914Z,0.68
2022-09-22T08:54:43.430Z,0.70
2022-09-22T08:57:45.379Z,0.80
2022-09-22T09:00:42.856Z,1.10
2022-09-22T09:03:43.068Z,0.82
2022-09-22T09:06:39.405Z,0.60
2022-09-22T09:09:38.397Z,0.52
2022-09-22T09:12:41.411Z,0.52
2022-09-22T09:15:42.630Z,0.50
2022-09-22T09:18:34.952Z,0.32
2022-09-22T09:21:25.958Z,0.68
2022-09-22T09:27:34.567Z,0.70
2022-09-22T09:30:24.225Z,0.70
2022-09-22T09:33:26.854Z,0.60
2022-09-22T09:36:20.772Z,0.50
2022-09-22T09:39:15.257Z,0.60
2022-09-22T09:42:14.862Z,0.68
2022-09-22T09:45:06.058Z,0.30
2022-09-22T09:48:13.570Z,1.85
2022-09-22T09:51:05.932Z,0.50
2022-09-22T09:53:57.080Z,0.60
2022-09-22T09:57:04.896Z,0.85
2022-09-22T10:00:34.746Z,0.52
2022-09-22T10:03:29.995Z,0.82
2022-09-22T10:06:26.531Z,1.20
2022-09-22T10:09:25.542Z,0.70
2022-09-22T10:12:30.857Z,1.00
2022-09-22T10:15:25.179Z,0.85
2022-09-22T10:18:31.982Z,0.75
2022-09-22T10:21:23.304Z,0.90
2022-09-22T10:24:25.853Z,0.73
2022-09-22T10:27:22.976Z,0.65
2022-09-22T10:30:23.883Z,0.73
2022-09-22T10:33:16.223Z,0.60
2022-09-22T10:36:10.999Z,0.73
2022-09-22T10:39:04.409Z,0.90
2022-09-22T10:41:53.870Z,1.25
2022-09-22T10:44:48.233Z,0.93
2022-09-22T10:47:56.106Z,0.80
2022-09-22T10:50:57.190Z,0.40
2022-09-22T10:54:02.006Z,0.70
2022-09-22T10:56:54.828Z,0.45
2022-09-22T11:00:04.090Z,0.90
2022-09-22T11:03:22.123Z,0.60
2022-09-22T11:06:50.999Z,0.70
2022-09-22T11:10:04.076Z,0.70
2022-09-22T11:13:01.820Z,0.52
2022-09-22T11:16:28.730Z,0.50
2022-09-22T11:19:49.208Z,0.43
2022-09-22T11:23:27.640Z,0.50
2022-09-22T11:26:31.712Z,0.40
2022-09-22T11:30:11.283Z,0.90
2022-09-22T11:33:37.187Z,0.60
2022-09-22T11:36:40.890Z,0.40
2022-09-22T11:39:45.062Z,0.60
2022-09-22T11:42:45.190Z,0.80
2022-09-22T11:45:48.461Z,0.57
2022-09-22T11:48:52.307Z,0.80
2022-09-22T11:52:03.345Z,0.47
2022-09-22T11:55:16.898Z,0.50
2022-09-22T11:58:11.727Z,0.40
2022-09-22T12:01:12.390Z,0.80
2022-09-22T12:04:09.441Z,0.70
2022-09-22T12:07:00.837Z,0.75
2022-09-22T12:09:56.309Z,0.43
2022-09-22T12:12:48.643Z,0.85
2022-09-22T12:15:43.571Z,0.73
2022-09-22T12:18:41.702Z,0.70
2022-09-22T12:21:44.162Z,0.68
2022-09-22T12:24:34.822Z,0.50
2022-09-22T12:27:26.426Z,0.50
2022-09-22T12:30:23.800Z,1.05
2022-09-22T12:33:17.454Z,1.23
2022-09-22T12:36:09.208Z,1.23
2022-09-22T12:39:09.875Z,0.77
2022-09-22T12:42:00.222Z,0.57
2022-09-22T12:44:52.404Z,1.20
2022-09-22T12:47:42.476Z,0.77
2022-09-22T12:50:39.564Z,0.85
2022-09-22T12:53:31.023Z,0.80
2022-09-22T12:56:46.727Z,1.10
2022-09-22T12:59:59.829Z,0.70
2022-09-22T13:02:49.878Z,0.90
2022-09-22T13:05:46.975Z,0.40
2022-09-22T13:09:08.357Z,0.70
2022-09-22T13:12:30.710Z,0.90
2022-09-22T15:30:16.624Z,0.68
2022-09-22T15:33:06.890Z,0.60
2022-09-22T15:35:57.960Z,0.70
2022-09-22T15:38:47.023Z,0.60
2022-09-22T15:41:36.903Z,0.68
2022-09-22T15:44:27.580Z,0.90
2022-09-22T15:47:18.165Z,0.90
2022-09-22T15:50:07.983Z,0.60
2022-09-22T15:52:57.390Z,0.57
2022-09-22T15:55:47.956Z,0.40
2022-09-22T15:58:39.460Z,0.88
2022-09-22T16:01:29.788Z,0.68
2022-09-22T16:04:20.427Z,0.90
2022-09-22T16:07:12.681Z,0.60
2022-09-22T16:10:03.947Z,0.60
2022-09-22T16:12:53.085Z,0.70
2022-09-22T16:15:42.574Z,0.65
2022-09-22T16:18:32.932Z,0.47
2022-09-22T16:21:26.173Z,0.80
2022-09-22T16:24:16.023Z,0.60
2022-09-22T16:27:07.348Z,0.70
2022-09-22T16:29:56.519Z,0.80
2022-09-22T16:32:46.406Z,0.80
2022-09-22T16:35:35.647Z,0.60
2022-09-22T16:38:26.350Z,0.90
2022-09-22T16:41:22.787Z,1.20
2022-09-22T16:44:12.025Z,2.10
2022-09-22T16:47:01.058Z,1.48
2022-09-22T16:49:51.822Z,1.55
2022-09-22T16:52:41.093Z,2.20
2022-09-22T16:55:35.576Z,4.10
2022-09-22T16:58:26.682Z,3.13
2022-09-22T17:01:19.839Z,2.92
2022-09-22T17:04:10.387Z,2.25
2022-09-22T17:07:00.053Z,1.42
2022-09-22T17:09:49.370Z,1.38
2022-09-22T17:12:43.192Z,0.90
2022-09-22T17:15:36.224Z,0.90
2022-09-22T17:18:25.675Z,0.75
2022-09-22T17:21:16.597Z,0.60
2022-09-22T17:24:06.439Z,1.27
2022-09-22T17:26:56.294Z,0.70
2022-09-22T17:29:47.042Z,1.00
2022-09-22T17:32:36.322Z,0.90
2022-09-22T17:35:25.590Z,0.70
2022-09-22T17:38:14.648Z,1.02
2022-09-22T17:41:09.313Z,0.80
2022-09-22T17:44:01.179Z,0.82
2022-09-22T17:47:10.358Z,1.00
2022-09-22T17:50:16.557Z,0.70
2022-09-22T17:53:22.854Z,0.70
2022-09-22T17:56:13.187Z,0.82
2022-09-22T17:59:02.232Z,1.10
2022-09-22T18:01:53.690Z,0.93
2022-09-22T18:04:43.354Z,0.90
2022-09-22T18:07:33.376Z,1.00
2022-09-22T18:10:22.778Z,1.00
2022-09-22T18:13:11.815Z,0.98
2022-09-22T18:16:19.702Z,1.00
2022-09-22T18:19:10.646Z,0.98
2022-09-22T18:22:02.011Z,1.30
2022-09-22T18:24:54.817Z,1.73
2022-09-22T18:27:44.479Z,1.60
2022-09-22T18:30:34.126Z,2.38
2022-09-22T18:33:23.185Z,1.60
2022-09-22T18:36:13.550Z,1.83
2022-09-22T18:39:02.542Z,2.20
2022-09-22T18:41:55.559Z,1.80
2022-09-22T18:44:45.107Z,2.08
2022-09-22T18:47:41.327Z,3.22
2022-09-22T18:50:31.225Z,3.38
2022-09-22T18:53:23.161Z,3.25
2022-09-22T18:56:12.386Z,4.18
2022-09-22T18:59:01.610Z,3.20
2022-09-22T19:01:51.346Z,3.85
2022-09-22T19:04:41.160Z,3.38
2022-09-22T19:07:42.655Z,3.58
2022-09-22T19:10:34.430Z,3.92
2022-09-22T19:13:24.019Z,4.03
2022-09-22T19:16:15.093Z,4.88
2022-09-22T19:19:04.359Z,6.90
2022-09-22T19:21:53.373Z,4.25
2022-09-22T19:24:44.755Z,3.17
2022-09-22T19:27:35.697Z,2.83
2022-09-22T19:30:28.589Z,2.08
2022-09-22T19:33:20.622Z,1.90
2022-09-22T19:36:10.600Z,1.58
2022-09-22T19:38:59.784Z,1.20
2022-09-22T19:41:49.496Z,1.40
2022-09-22T19:44:40.197Z,1.75
2022-09-22T19:47:29.467Z,1.33
2022-09-22T19:50:19.450Z,1.70
2022-09-22T19:53:09.040Z,1.60
2022-09-22T19:55:58.268Z,1.45
2022-09-22T19:58:47.437Z,2.42
2022-09-22T20:01:40.301Z,2.30
2022-09-22T20:04:29.911Z,1.70
2022-09-22T20:07:18.697Z,2.20
2022-09-22T20:10:08.582Z,2.63
2022-09-22T20:12:58.042Z,1.60
2022-09-22T20:15:47.167Z,1.70
2022-09-22T20:18:41.281Z,1.75
2022-09-22T20:21:33.618Z,1.60
2022-09-22T20:24:24.513Z,1.60
2022-09-22T20:27:13.320Z,1.30
2022-09-22T20:30:02.769Z,1.45
2022-09-22T20:32:52.158Z,1.10
2022-09-22T20:35:43.146Z,1.60
2022-09-22T20:38:33.298Z,1.50
2022-09-22T20:41:24.356Z,1.30
2022-09-22T20:44:15.452Z,1.15
2022-09-22T20:47:06.540Z,1.70
2022-09-22T20:49:56.093Z,1.40
2022-09-22T20:52:47.532Z,1.30
2022-09-22T20:55:36.739Z,1.48
2022-09-22T20:58:26.542Z,1.77
2022-09-22T21:01:18.106Z,2.25
2022-09-22T21:04:08.005Z,1.77
2022-09-22T21:06:56.998Z,1.30
2022-09-22T21:10:01.094Z,1.60
2022-09-22T21:12:55.026Z,1.80
2022-09-22T21:15:44.611Z,1.63
2022-09-22T21:18:34.943Z,1.70
2022-09-22T21:21:23.950Z,1.63
2022-09-22T21:24:13.411Z,1.90
2022-09-22T21:27:04.023Z,1.42
2022-09-22T22:58:19.016Z,1.40
2022-09-22T23:01:11.275Z,1.05
2022-09-22T23:04:05.183Z,1.30
2022-09-22T23:06:54.194Z,1.30
2022-09-22T23:09:42.688Z,1.30
2022-09-22T23:12:34.732Z,1.13
2022-09-22T23:15:24.943Z,1.30
2022-09-22T23:18:20.106Z,1.08
2022-09-22T23:21:11.898Z,1.33
2022-09-22T23:24:01.941Z,1.55
2022-09-22T23:26:51.859Z,1.27
2022-09-22T23:29:40.899Z,1.30
2022-09-22T23:32:29.694Z,1.48
2022-09-22T23:35:20.263Z,1.20
2022-09-22T23:38:14.126Z,1.20
2022-09-22T23:41:06.736Z,1.20
2022-09-22T23:43:55.921Z,1.30
2022-09-22T23:46:45.027Z,1.13
2022-09-22T23:49:34.467Z,1.02
2022-09-22T23:52:25.418Z,1.20
2022-09-22T23:55:14.492Z,1.08
2022-09-22T23:58:03.483Z,1.00
